sensor_id;sensor_type;location;lat;lon;timestamp;P1;durP1;ratioP1;P2;durP2;ratioP2
64871;SDS011;51351;51.450;6.614;2024-03-17T00:00:00;13.93;;;8.00;;
64871;SDS011;51351;51.450;6.614;2024-03-17T00:02:25;11.77;;;10.57;;
64871;SDS011;51351;51.450;6.614;2024-03-17T00:04:52;10.10;;;9.10;;
64871;SDS011;51351;51.450;6.614;2024-03-17T00:07:18;9.20;;;8.15;;
64871;SDS011;51351;51.450;6.614;2024-03-17T00:09:43;11.15;;;7.72;;
64871;SDS011;51351;51.450;6.614;2024-03-17T00:12:09;13.45;;;9.48;;
64871;SDS011;51351;51.450;6.614;2024-03-17T00:14:34;8.77;;;6.20;;
64871;SDS011;51351;51.450;6.614;2024-03-17T00:17:00;11.60;;;10.40;;
64871;SDS011;51351;51.450;6.614;2024-03-17T00:19:26;10.52;;;7.43;;
64871;SDS011;51351;51.450;6.614;2024-03-17T00:21:51;12.70;;;9.65;;
64871;SDS011;51351;51.450;6.614;2024-03-17T00:24:16;9.50;;;8.02;;
64871;SDS011;51351;51.450;6.614;2024-03-17T00:26:42;12.90;;;8.35;;
64871;SDS011;51351;51.450;6.614;2024-03-17T00:29:07;11.63;;;9.38;;
64871;SDS011;51351;51.450;6.614;2024-03-17T00:31:32;10.32;;;8.57;;
64871;SDS011;51351;51.450;6.614;2024-03-17T00:33:58;11.60;;;10.32;;
64871;SDS011;51351;51.450;6.614;2024-03-17T00:36:23;10.13;;;8.82;;
64871;SDS011;51351;51.450;6.614;2024-03-17T00:38:48;18.13;;;9.73;;
64871;SDS011;51351;51.450;6.614;2024-03-17T00:41:14;10.43;;;9.15;;
64871;SDS011;51351;51.450;6.614;2024-03-17T00:43:39;12.57;;;8.10;;
64871;SDS011;51351;51.450;6.614;2024-03-17T00:46:04;10.75;;;9.68;;
64871;SDS011;51351;51.450;6.614;2024-03-17T00:48:30;10.27;;;8.38;;
64871;SDS011;51351;51.450;6.614;2024-03-17T00:50:56;12.50;;;8.23;;
64871;SDS011;51351;51.450;6.614;2024-03-17T00:53:22;11.45;;;8.07;;
64871;SDS011;51351;51.450;6.614;2024-03-17T00:55:54;8.90;;;7.95;;
64871;SDS011;51351;51.450;6.614;2024-03-17T00:58:22;9.95;;;8.98;;
64871;SDS011;51351;51.450;6.614;2024-03-17T01:00:47;8.65;;;7.75;;
64871;SDS011;51351;51.450;6.614;2024-03-17T01:03:13;10.48;;;8.48;;
64871;SDS011;51351;51.450;6.614;2024-03-17T01:05:39;11.32;;;8.82;;
64871;SDS011;51351;51.450;6.614;2024-03-17T01:08:09;8.63;;;7.78;;
64871;SDS011;51351;51.450;6.614;2024-03-17T01:10:38;9.75;;;8.00;;
64871;SDS011;51351;51.450;6.614;2024-03-17T01:13:05;10.88;;;8.13;;
64871;SDS011;51351;51.450;6.614;2024-03-17T01:15:30;13.63;;;8.50;;
64871;SDS011;51351;51.450;6.614;2024-03-17T01:17:56;10.95;;;9.73;;
64871;SDS011;51351;51.450;6.614;2024-03-17T01:20:21;10.73;;;7.87;;
64871;SDS011;51351;51.450;6.614;2024-03-17T01:22:46;9.07;;;7.50;;
64871;SDS011;51351;51.450;6.614;2024-03-17T01:25:12;11.38;;;7.07;;
64871;SDS011;51351;51.450;6.614;2024-03-17T01:27:37;11.43;;;7.63;;
64871;SDS011;51351;51.450;6.614;2024-03-17T01:30:03;8.38;;;6.60;;
64871;SDS011;51351;51.450;6.614;2024-03-17T01:32:28;8.35;;;7.20;;
64871;SDS011;51351;51.450;6.614;2024-03-17T01:34:53;11.60;;;9.25;;
64871;SDS011;51351;51.450;6.614;2024-03-17T01:37:19;9.10;;;7.15;;
64871;SDS011;51351;51.450;6.614;2024-03-17T01:39:44;8.23;;;7.22;;
64871;SDS011;51351;51.450;6.614;2024-03-17T01:42:09;7.95;;;5.20;;
64871;SDS011;51351;51.450;6.614;2024-03-17T01:44:35;13.60;;;6.70;;
64871;SDS011;51351;51.450;6.614;2024-03-17T01:47:00;10.73;;;6.70;;
64871;SDS011;51351;51.450;6.614;2024-03-17T01:49:25;9.32;;;7.75;;
64871;SDS011;51351;51.450;6.614;2024-03-17T01:51:51;9.88;;;8.93;;
64871;SDS011;51351;51.450;6.614;2024-03-17T01:54:17;13.65;;;7.55;;
64871;SDS011;51351;51.450;6.614;2024-03-17T01:56:43;9.63;;;6.88;;
64871;SDS011;51351;51.450;6.614;2024-03-17T01:59:09;7.65;;;7.00;;
64871;SDS011;51351;51.450;6.614;2024-03-17T02:01:34;10.38;;;7.20;;
64871;SDS011;51351;51.450;6.614;2024-03-17T02:04:00;8.50;;;6.97;;
64871;SDS011;51351;51.450;6.614;2024-03-17T02:06:26;7.57;;;5.75;;
64871;SDS011;51351;51.450;6.614;2024-03-17T02:08:52;15.55;;;7.13;;
64871;SDS011;51351;51.450;6.614;2024-03-17T02:11:28;7.95;;;6.75;;
64871;SDS011;51351;51.450;6.614;2024-03-17T02:13:54;10.95;;;6.38;;
64871;SDS011;51351;51.450;6.614;2024-03-17T02:16:19;7.70;;;6.85;;
64871;SDS011;51351;51.450;6.614;2024-03-17T02:18:45;8.93;;;6.72;;
64871;SDS011;51351;51.450;6.614;2024-03-17T02:21:11;9.57;;;6.60;;
64871;SDS011;51351;51.450;6.614;2024-03-17T02:23:36;10.55;;;6.97;;
64871;SDS011;51351;51.450;6.614;2024-03-17T02:26:02;8.80;;;6.05;;
64871;SDS011;51351;51.450;6.614;2024-03-17T02:28:27;8.95;;;5.45;;
64871;SDS011;51351;51.450;6.614;2024-03-17T02:30:52;8.82;;;6.18;;
64871;SDS011;51351;51.450;6.614;2024-03-17T02:33:18;9.27;;;7.40;;
64871;SDS011;51351;51.450;6.614;2024-03-17T02:35:44;12.43;;;6.60;;
64871;SDS011;51351;51.450;6.614;2024-03-17T02:38:09;8.30;;;6.78;;
64871;SDS011;51351;51.450;6.614;2024-03-17T02:40:40;7.32;;;6.47;;
64871;SDS011;51351;51.450;6.614;2024-03-17T02:43:05;13.07;;;6.23;;
64871;SDS011;51351;51.450;6.614;2024-03-17T02:45:31;8.85;;;7.07;;
64871;SDS011;51351;51.450;6.614;2024-03-17T02:47:57;10.60;;;4.53;;
64871;SDS011;51351;51.450;6.614;2024-03-17T02:50:22;11.10;;;6.68;;
64871;SDS011;51351;51.450;6.614;2024-03-17T02:52:47;9.10;;;6.75;;
64871;SDS011;51351;51.450;6.614;2024-03-17T02:55:13;8.13;;;6.95;;
64871;SDS011;51351;51.450;6.614;2024-03-17T02:57:38;6.72;;;6.13;;
64871;SDS011;51351;51.450;6.614;2024-03-17T03:00:04;7.93;;;7.00;;
64871;SDS011;51351;51.450;6.614;2024-03-17T03:02:30;10.40;;;7.57;;
64871;SDS011;51351;51.450;6.614;2024-03-17T03:04:55;7.70;;;6.60;;
64871;SDS011;51351;51.450;6.614;2024-03-17T03:07:20;9.32;;;7.13;;
64871;SDS011;51351;51.450;6.614;2024-03-17T03:09:46;11.53;;;6.50;;
64871;SDS011;51351;51.450;6.614;2024-03-17T03:12:12;6.90;;;6.18;;
64871;SDS011;51351;51.450;6.614;2024-03-17T03:14:37;12.23;;;7.00;;
64871;SDS011;51351;51.450;6.614;2024-03-17T03:17:02;11.40;;;6.50;;
64871;SDS011;51351;51.450;6.614;2024-03-17T03:19:28;8.43;;;7.55;;
64871;SDS011;51351;51.450;6.614;2024-03-17T03:21:55;12.00;;;6.97;;
64871;SDS011;51351;51.450;6.614;2024-03-17T03:24:21;9.35;;;6.20;;
64871;SDS011;51351;51.450;6.614;2024-03-17T03:26:47;11.15;;;8.73;;
64871;SDS011;51351;51.450;6.614;2024-03-17T03:29:13;11.85;;;10.02;;
64871;SDS011;51351;51.450;6.614;2024-03-17T03:31:39;9.43;;;8.63;;
64871;SDS011;51351;51.450;6.614;2024-03-17T03:34:04;11.10;;;8.00;;
64871;SDS011;51351;51.450;6.614;2024-03-17T03:36:32;12.27;;;6.78;;
64871;SDS011;51351;51.450;6.614;2024-03-17T03:38:58;9.93;;;7.22;;
64871;SDS011;51351;51.450;6.614;2024-03-17T03:41:23;9.38;;;7.68;;
64871;SDS011;51351;51.450;6.614;2024-03-17T03:43:49;9.02;;;7.95;;
64871;SDS011;51351;51.450;6.614;2024-03-17T03:46:15;12.13;;;7.43;;
64871;SDS011;51351;51.450;6.614;2024-03-17T03:48:40;11.43;;;10.27;;
64871;SDS011;51351;51.450;6.614;2024-03-17T03:51:06;17.15;;;8.23;;
64871;SDS011;51351;51.450;6.614;2024-03-17T03:53:32;12.45;;;9.10;;
64871;SDS011;51351;51.450;6.614;2024-03-17T03:55:57;9.60;;;7.07;;
64871;SDS011;51351;51.450;6.614;2024-03-17T03:58:23;8.77;;;7.88;;
64871;SDS011;51351;51.450;6.614;2024-03-17T04:00:49;10.45;;;7.45;;
64871;SDS011;51351;51.450;6.614;2024-03-17T04:03:14;15.75;;;8.43;;
64871;SDS011;51351;51.450;6.614;2024-03-17T04:05:39;13.80;;;8.03;;
64871;SDS011;51351;51.450;6.614;2024-03-17T04:08:05;10.63;;;7.77;;
64871;SDS011;51351;51.450;6.614;2024-03-17T04:10:30;11.18;;;8.77;;
64871;SDS011;51351;51.450;6.614;2024-03-17T04:12:55;11.95;;;7.57;;
64871;SDS011;51351;51.450;6.614;2024-03-17T04:15:22;9.32;;;8.07;;
64871;SDS011;51351;51.450;6.614;2024-03-17T04:17:47;11.27;;;8.40;;
64871;SDS011;51351;51.450;6.614;2024-03-17T04:20:12;10.63;;;8.73;;
64871;SDS011;51351;51.450;6.614;2024-03-17T04:22:42;11.23;;;9.35;;
64871;SDS011;51351;51.450;6.614;2024-03-17T04:25:10;11.30;;;7.57;;
64871;SDS011;51351;51.450;6.614;2024-03-17T04:27:36;11.85;;;8.13;;
64871;SDS011;51351;51.450;6.614;2024-03-17T04:30:01;9.57;;;8.57;;
64871;SDS011;51351;51.450;6.614;2024-03-17T04:32:31;13.23;;;8.57;;
64871;SDS011;51351;51.450;6.614;2024-03-17T04:34:56;10.60;;;7.35;;
64871;SDS011;51351;51.450;6.614;2024-03-17T04:37:22;14.65;;;9.75;;
64871;SDS011;51351;51.450;6.614;2024-03-17T04:39:47;10.32;;;8.60;;
64871;SDS011;51351;51.450;6.614;2024-03-17T04:42:13;9.85;;;6.82;;
64871;SDS011;51351;51.450;6.614;2024-03-17T04:44:43;7.03;;;5.97;;
64871;SDS011;51351;51.450;6.614;2024-03-17T04:47:08;10.23;;;8.00;;
64871;SDS011;51351;51.450;6.614;2024-03-17T04:49:38;12.82;;;8.57;;
64871;SDS011;51351;51.450;6.614;2024-03-17T04:52:04;8.82;;;7.88;;
64871;SDS011;51351;51.450;6.614;2024-03-17T04:54:30;10.02;;;7.45;;
64871;SDS011;51351;51.450;6.614;2024-03-17T04:59:21;9.07;;;8.03;;
64871;SDS011;51351;51.450;6.614;2024-03-17T05:01:46;10.52;;;8.15;;
64871;SDS011;51351;51.450;6.614;2024-03-17T05:04:13;12.05;;;7.15;;
64871;SDS011;51351;51.450;6.614;2024-03-17T05:06:38;11.20;;;7.70;;
64871;SDS011;51351;51.450;6.614;2024-03-17T05:09:06;10.23;;;7.53;;
64871;SDS011;51351;51.450;6.614;2024-03-17T05:11:32;8.70;;;7.80;;
64871;SDS011;51351;51.450;6.614;2024-03-17T05:13:58;10.45;;;7.50;;
64871;SDS011;51351;51.450;6.614;2024-03-17T05:16:23;8.65;;;7.50;;
64871;SDS011;51351;51.450;6.614;2024-03-17T05:18:49;8.30;;;5.95;;
64871;SDS011;51351;51.450;6.614;2024-03-17T05:21:14;9.40;;;8.30;;
64871;SDS011;51351;51.450;6.614;2024-03-17T05:23:40;9.27;;;7.80;;
64871;SDS011;51351;51.450;6.614;2024-03-17T05:26:05;10.02;;;5.32;;
64871;SDS011;51351;51.450;6.614;2024-03-17T05:28:30;9.88;;;7.95;;
64871;SDS011;51351;51.450;6.614;2024-03-17T05:30:56;9.57;;;6.88;;
64871;SDS011;51351;51.450;6.614;2024-03-17T05:33:22;4.80;;;4.20;;
64871;SDS011;51351;51.450;6.614;2024-03-17T05:35:51;10.80;;;8.30;;
64871;SDS011;51351;51.450;6.614;2024-03-17T05:38:18;7.32;;;6.38;;
64871;SDS011;51351;51.450;6.614;2024-03-17T05:40:44;10.90;;;7.15;;
64871;SDS011;51351;51.450;6.614;2024-03-17T05:43:09;10.55;;;8.85;;
64871;SDS011;51351;51.450;6.614;2024-03-17T05:45:35;12.05;;;10.73;;
64871;SDS011;51351;51.450;6.614;2024-03-17T05:48:01;8.18;;;7.32;;
64871;SDS011;51351;51.450;6.614;2024-03-17T05:50:30;9.68;;;8.05;;
64871;SDS011;51351;51.450;6.614;2024-03-17T05:52:55;13.23;;;8.13;;
64871;SDS011;51351;51.450;6.614;2024-03-17T05:55:20;10.00;;;6.97;;
64871;SDS011;51351;51.450;6.614;2024-03-17T05:57:47;9.75;;;8.70;;
64871;SDS011;51351;51.450;6.614;2024-03-17T06:00:12;9.00;;;7.28;;
64871;SDS011;51351;51.450;6.614;2024-03-17T06:02:40;8.80;;;5.10;;
64871;SDS011;51351;51.450;6.614;2024-03-17T06:05:05;10.30;;;7.43;;
64871;SDS011;51351;51.450;6.614;2024-03-17T06:07:35;8.07;;;5.63;;
64871;SDS011;51351;51.450;6.614;2024-03-17T06:10:00;11.82;;;6.40;;
64871;SDS011;51351;51.450;6.614;2024-03-17T06:12:25;10.60;;;7.07;;
64871;SDS011;51351;51.450;6.614;2024-03-17T06:14:51;7.00;;;6.30;;
64871;SDS011;51351;51.450;6.614;2024-03-17T06:17:16;10.75;;;6.82;;
64871;SDS011;51351;51.450;6.614;2024-03-17T06:19:41;9.20;;;7.50;;
64871;SDS011;51351;51.450;6.614;2024-03-17T06:22:07;8.15;;;7.35;;
64871;SDS011;51351;51.450;6.614;2024-03-17T06:24:32;10.57;;;8.53;;
64871;SDS011;51351;51.450;6.614;2024-03-17T06:26:57;9.45;;;6.75;;
64871;SDS011;51351;51.450;6.614;2024-03-17T06:29:23;8.68;;;7.88;;
64871;SDS011;51351;51.450;6.614;2024-03-17T06:31:48;8.88;;;7.95;;
64871;SDS011;51351;51.450;6.614;2024-03-17T06:34:14;11.52;;;7.13;;
64871;SDS011;51351;51.450;6.614;2024-03-17T06:36:41;9.23;;;7.22;;
64871;SDS011;51351;51.450;6.614;2024-03-17T06:39:07;5.53;;;3.97;;
64871;SDS011;51351;51.450;6.614;2024-03-17T06:41:32;8.82;;;6.82;;
64871;SDS011;51351;51.450;6.614;2024-03-17T06:43:57;12.33;;;9.10;;
64871;SDS011;51351;51.450;6.614;2024-03-17T06:46:24;9.68;;;6.65;;
64871;SDS011;51351;51.450;6.614;2024-03-17T06:48:49;9.50;;;7.47;;
64871;SDS011;51351;51.450;6.614;2024-03-17T06:51:16;12.18;;;7.45;;
64871;SDS011;51351;51.450;6.614;2024-03-17T06:53:41;12.63;;;7.82;;
64871;SDS011;51351;51.450;6.614;2024-03-17T06:56:07;12.10;;;8.17;;
64871;SDS011;51351;51.450;6.614;2024-03-17T06:58:33;10.18;;;5.78;;
64871;SDS011;51351;51.450;6.614;2024-03-17T07:01:01;8.18;;;6.53;;
64871;SDS011;51351;51.450;6.614;2024-03-17T07:03:27;9.60;;;5.50;;
64871;SDS011;51351;51.450;6.614;2024-03-17T07:05:57;9.45;;;7.60;;
64871;SDS011;51351;51.450;6.614;2024-03-17T07:08:22;8.25;;;7.45;;
64871;SDS011;51351;51.450;6.614;2024-03-17T07:10:58;6.70;;;6.05;;
64871;SDS011;51351;51.450;6.614;2024-03-17T07:13:23;7.72;;;6.28;;
64871;SDS011;51351;51.450;6.614;2024-03-17T07:15:49;8.18;;;6.53;;
64871;SDS011;51351;51.450;6.614;2024-03-17T07:18:14;6.80;;;5.78;;
64871;SDS011;51351;51.450;6.614;2024-03-17T07:20:39;10.38;;;5.68;;
64871;SDS011;51351;51.450;6.614;2024-03-17T07:23:05;10.10;;;7.05;;
64871;SDS011;51351;51.450;6.614;2024-03-17T07:25:30;7.60;;;5.83;;
64871;SDS011;51351;51.450;6.614;2024-03-17T07:27:55;7.70;;;6.68;;
64871;SDS011;51351;51.450;6.614;2024-03-17T07:30:21;9.45;;;6.55;;
64871;SDS011;51351;51.450;6.614;2024-03-17T07:32:46;11.50;;;7.22;;
64871;SDS011;51351;51.450;6.614;2024-03-17T07:35:12;9.20;;;6.25;;
64871;SDS011;51351;51.450;6.614;2024-03-17T07:37:37;7.75;;;6.00;;
64871;SDS011;51351;51.450;6.614;2024-03-17T07:40:04;7.70;;;6.00;;
64871;SDS011;51351;51.450;6.614;2024-03-17T07:42:34;12.48;;;7.80;;
64871;SDS011;51351;51.450;6.614;2024-03-17T07:45:00;9.27;;;7.45;;
64871;SDS011;51351;51.450;6.614;2024-03-17T07:47:25;9.47;;;6.63;;
64871;SDS011;51351;51.450;6.614;2024-03-17T07:49:50;8.65;;;7.15;;
64871;SDS011;51351;51.450;6.614;2024-03-17T07:52:16;10.75;;;8.80;;
64871;SDS011;51351;51.450;6.614;2024-03-17T07:54:41;9.98;;;7.00;;
64871;SDS011;51351;51.450;6.614;2024-03-17T07:57:06;10.27;;;7.77;;
64871;SDS011;51351;51.450;6.614;2024-03-17T07:59:34;7.05;;;5.97;;
64871;SDS011;51351;51.450;6.614;2024-03-17T08:01:59;9.13;;;6.40;;
64871;SDS011;51351;51.450;6.614;2024-03-17T08:04:24;7.72;;;6.55;;
64871;SDS011;51351;51.450;6.614;2024-03-17T08:06:50;8.13;;;6.65;;
64871;SDS011;51351;51.450;6.614;2024-03-17T08:09:15;9.07;;;7.30;;
64871;SDS011;51351;51.450;6.614;2024-03-17T08:11:41;8.18;;;5.63;;
64871;SDS011;51351;51.450;6.614;2024-03-17T08:14:11;6.97;;;5.97;;
64871;SDS011;51351;51.450;6.614;2024-03-17T08:16:36;9.07;;;6.97;;
64871;SDS011;51351;51.450;6.614;2024-03-17T08:19:02;8.20;;;7.50;;
64871;SDS011;51351;51.450;6.614;2024-03-17T08:21:28;8.68;;;6.45;;
64871;SDS011;51351;51.450;6.614;2024-03-17T08:23:55;7.63;;;5.75;;
64871;SDS011;51351;51.450;6.614;2024-03-17T08:26:22;8.35;;;5.38;;
64871;SDS011;51351;51.450;6.614;2024-03-17T08:28:53;6.45;;;5.93;;
64871;SDS011;51351;51.450;6.614;2024-03-17T08:31:21;6.03;;;5.22;;
64871;SDS011;51351;51.450;6.614;2024-03-17T08:33:47;5.95;;;4.95;;
64871;SDS011;51351;51.450;6.614;2024-03-17T08:36:12;5.63;;;5.00;;
64871;SDS011;51351;51.450;6.614;2024-03-17T08:38:41;6.22;;;5.20;;
64871;SDS011;51351;51.450;6.614;2024-03-17T08:41:09;6.18;;;5.57;;
64871;SDS011;51351;51.450;6.614;2024-03-17T08:43:35;6.55;;;5.47;;
64871;SDS011;51351;51.450;6.614;2024-03-17T08:46:04;7.18;;;6.47;;
64871;SDS011;51351;51.450;6.614;2024-03-17T08:48:31;7.25;;;6.55;;
64871;SDS011;51351;51.450;6.614;2024-03-17T08:50:59;6.70;;;5.45;;
64871;SDS011;51351;51.450;6.614;2024-03-17T08:53:25;6.25;;;5.65;;
64871;SDS011;51351;51.450;6.614;2024-03-17T08:55:51;8.27;;;6.38;;
64871;SDS011;51351;51.450;6.614;2024-03-17T08:58:17;9.90;;;6.13;;
64871;SDS011;51351;51.450;6.614;2024-03-17T09:00:42;9.52;;;8.20;;
64871;SDS011;51351;51.450;6.614;2024-03-17T09:03:08;9.80;;;7.25;;
64871;SDS011;51351;51.450;6.614;2024-03-17T09:05:40;6.30;;;5.60;;
64871;SDS011;51351;51.450;6.614;2024-03-17T09:08:06;9.32;;;5.97;;
64871;SDS011;51351;51.450;6.614;2024-03-17T09:10:41;7.85;;;5.35;;
64871;SDS011;51351;51.450;6.614;2024-03-17T09:13:07;6.50;;;5.68;;
64871;SDS011;51351;51.450;6.614;2024-03-17T09:15:32;6.28;;;5.45;;
64871;SDS011;51351;51.450;6.614;2024-03-17T09:17:57;7.13;;;6.43;;
64871;SDS011;51351;51.450;6.614;2024-03-17T09:20:23;6.47;;;5.40;;
64871;SDS011;51351;51.450;6.614;2024-03-17T09:22:49;7.25;;;6.03;;
64871;SDS011;51351;51.450;6.614;2024-03-17T09:25:14;7.65;;;6.80;;
64871;SDS011;51351;51.450;6.614;2024-03-17T09:27:40;9.52;;;5.35;;
64871;SDS011;51351;51.450;6.614;2024-03-17T09:30:05;8.90;;;8.00;;
64871;SDS011;51351;51.450;6.614;2024-03-17T09:32:40;8.32;;;5.95;;
64871;SDS011;51351;51.450;6.614;2024-03-17T09:35:06;6.70;;;5.63;;
64871;SDS011;51351;51.450;6.614;2024-03-17T09:37:31;9.05;;;6.30;;
64871;SDS011;51351;51.450;6.614;2024-03-17T09:39:57;4.70;;;4.25;;
64871;SDS011;51351;51.450;6.614;2024-03-17T09:42:25;5.88;;;4.60;;
64871;SDS011;51351;51.450;6.614;2024-03-17T09:44:50;5.45;;;4.90;;
64871;SDS011;51351;51.450;6.614;2024-03-17T09:47:20;5.40;;;4.95;;
64871;SDS011;51351;51.450;6.614;2024-03-17T09:49:47;7.22;;;4.75;;
64871;SDS011;51351;51.450;6.614;2024-03-17T09:52:16;5.80;;;4.70;;
64871;SDS011;51351;51.450;6.614;2024-03-17T09:54:43;7.55;;;5.43;;
64871;SDS011;51351;51.450;6.614;2024-03-17T09:57:08;7.93;;;5.80;;
64871;SDS011;51351;51.450;6.614;2024-03-17T09:59:39;7.63;;;5.15;;
64871;SDS011;51351;51.450;6.614;2024-03-17T10:02:06;6.77;;;6.03;;
64871;SDS011;51351;51.450;6.614;2024-03-17T10:04:41;6.88;;;6.18;;
64871;SDS011;51351;51.450;6.614;2024-03-17T10:07:06;6.33;;;5.33;;
64871;SDS011;51351;51.450;6.614;2024-03-17T10:09:31;8.02;;;5.53;;
64871;SDS011;51351;51.450;6.614;2024-03-17T10:11:57;11.02;;;5.68;;
64871;SDS011;51351;51.450;6.614;2024-03-17T10:14:23;5.73;;;4.53;;
64871;SDS011;51351;51.450;6.614;2024-03-17T10:16:48;8.20;;;6.80;;
64871;SDS011;51351;51.450;6.614;2024-03-17T10:19:14;6.63;;;5.45;;
64871;SDS011;51351;51.450;6.614;2024-03-17T10:21:40;11.05;;;6.60;;
64871;SDS011;51351;51.450;6.614;2024-03-17T10:26:41;9.07;;;6.35;;
64871;SDS011;51351;51.450;6.614;2024-03-17T10:29:25;6.95;;;5.05;;
64871;SDS011;51351;51.450;6.614;2024-03-17T10:31:51;8.45;;;5.28;;
64871;SDS011;51351;51.450;6.614;2024-03-17T10:36:44;5.18;;;3.40;;
64871;SDS011;51351;51.450;6.614;2024-03-17T10:39:27;5.05;;;4.50;;
64871;SDS011;51351;51.450;6.614;2024-03-17T10:41:57;6.30;;;4.45;;
64871;SDS011;51351;51.450;6.614;2024-03-17T10:44:23;6.07;;;5.55;;
64871;SDS011;51351;51.450;6.614;2024-03-17T10:46:49;8.85;;;5.38;;
64871;SDS011;51351;51.450;6.614;2024-03-17T10:49:17;8.38;;;5.35;;
64871;SDS011;51351;51.450;6.614;2024-03-17T10:51:43;6.50;;;4.30;;
64871;SDS011;51351;51.450;6.614;2024-03-17T10:54:09;7.15;;;4.47;;
64871;SDS011;51351;51.450;6.614;2024-03-17T10:56:37;8.07;;;4.85;;
64871;SDS011;51351;51.450;6.614;2024-03-17T10:59:04;5.32;;;4.50;;
64871;SDS011;51351;51.450;6.614;2024-03-17T11:01:31;6.93;;;4.45;;
64871;SDS011;51351;51.450;6.614;2024-03-17T11:03:58;6.10;;;5.15;;
64871;SDS011;51351;51.450;6.614;2024-03-17T11:08:49;4.47;;;4.07;;
64871;SDS011;51351;51.450;6.614;2024-03-17T11:11:15;7.90;;;5.50;;
64871;SDS011;51351;51.450;6.614;2024-03-17T11:14:18;8.75;;;6.45;;
64871;SDS011;51351;51.450;6.614;2024-03-17T11:16:45;9.95;;;6.10;;
64871;SDS011;51351;51.450;6.614;2024-03-17T11:19:14;9.48;;;5.68;;
64871;SDS011;51351;51.450;6.614;2024-03-17T11:21:40;8.75;;;6.22;;
64871;SDS011;51351;51.450;6.614;2024-03-17T11:24:05;8.80;;;5.78;;
64871;SDS011;51351;51.450;6.614;2024-03-17T11:26:32;9.30;;;5.13;;
64871;SDS011;51351;51.450;6.614;2024-03-17T11:28:57;8.88;;;6.47;;
64871;SDS011;51351;51.450;6.614;2024-03-17T11:34:02;12.63;;;8.73;;
64871;SDS011;51351;51.450;6.614;2024-03-17T11:41:40;8.93;;;5.50;;
64871;SDS011;51351;51.450;6.614;2024-03-17T11:46:40;7.18;;;5.15;;
64871;SDS011;51351;51.450;6.614;2024-03-17T11:49:06;7.20;;;5.80;;
64871;SDS011;51351;51.450;6.614;2024-03-17T11:51:34;8.43;;;5.25;;
64871;SDS011;51351;51.450;6.614;2024-03-17T11:53:59;6.63;;;4.97;;
64871;SDS011;51351;51.450;6.614;2024-03-17T11:56:24;6.75;;;5.05;;
64871;SDS011;51351;51.450;6.614;2024-03-17T11:59:06;9.32;;;4.85;;
64871;SDS011;51351;51.450;6.614;2024-03-17T12:01:35;8.05;;;4.65;;
64871;SDS011;51351;51.450;6.614;2024-03-17T12:04:01;7.10;;;4.32;;
64871;SDS011;51351;51.450;6.614;2024-03-17T12:06:31;7.28;;;5.13;;
64871;SDS011;51351;51.450;6.614;2024-03-17T12:09:18;6.47;;;4.53;;
64871;SDS011;51351;51.450;6.614;2024-03-17T12:11:42;9.15;;;5.80;;
64871;SDS011;51351;51.450;6.614;2024-03-17T12:14:17;8.23;;;5.30;;
64871;SDS011;51351;51.450;6.614;2024-03-17T12:16:54;7.40;;;4.85;;
64871;SDS011;51351;51.450;6.614;2024-03-17T12:21:45;4.53;;;3.72;;
64871;SDS011;51351;51.450;6.614;2024-03-17T12:24:15;4.40;;;4.00;;
64871;SDS011;51351;51.450;6.614;2024-03-17T12:26:41;6.22;;;4.05;;
64871;SDS011;51351;51.450;6.614;2024-03-17T12:31:52;7.57;;;4.65;;
64871;SDS011;51351;51.450;6.614;2024-03-17T12:34:18;6.57;;;4.70;;
64871;SDS011;51351;51.450;6.614;2024-03-17T12:36:44;5.22;;;4.30;;
64871;SDS011;51351;51.450;6.614;2024-03-17T12:39:10;4.82;;;3.85;;
64871;SDS011;51351;51.450;6.614;2024-03-17T12:41:36;6.00;;;3.80;;
64871;SDS011;51351;51.450;6.614;2024-03-17T12:44:02;6.20;;;3.92;;
64871;SDS011;51351;51.450;6.614;2024-03-17T12:48:59;4.43;;;4.03;;
64871;SDS011;51351;51.450;6.614;2024-03-17T12:51:25;7.15;;;3.70;;
64871;SDS011;51351;51.450;6.614;2024-03-17T12:53:50;4.45;;;3.35;;
64871;SDS011;51351;51.450;6.614;2024-03-17T12:59:19;3.92;;;3.22;;
64871;SDS011;51351;51.450;6.614;2024-03-17T13:02:05;4.78;;;3.85;;
64871;SDS011;51351;51.450;6.614;2024-03-17T13:04:35;4.97;;;3.72;;
64871;SDS011;51351;51.450;6.614;2024-03-17T13:07:08;5.63;;;4.03;;
64871;SDS011;51351;51.450;6.614;2024-03-17T13:09:34;6.20;;;3.47;;
64871;SDS011;51351;51.450;6.614;2024-03-17T13:12:00;5.25;;;4.75;;
64871;SDS011;51351;51.450;6.614;2024-03-17T13:14:25;5.05;;;4.10;;
64871;SDS011;51351;51.450;6.614;2024-03-17T13:16:50;6.30;;;3.85;;
64871;SDS011;51351;51.450;6.614;2024-03-17T13:19:16;5.00;;;4.45;;
64871;SDS011;51351;51.450;6.614;2024-03-17T13:21:41;4.57;;;3.30;;
64871;SDS011;51351;51.450;6.614;2024-03-17T13:24:06;6.25;;;4.15;;
64871;SDS011;51351;51.450;6.614;2024-03-17T13:26:32;5.10;;;4.45;;
64871;SDS011;51351;51.450;6.614;2024-03-17T13:28:58;7.32;;;4.43;;
64871;SDS011;51351;51.450;6.614;2024-03-17T13:31:23;4.18;;;3.50;;
64871;SDS011;51351;51.450;6.614;2024-03-17T13:33:49;5.97;;;4.03;;
64871;SDS011;51351;51.450;6.614;2024-03-17T13:36:15;5.82;;;3.90;;
64871;SDS011;51351;51.450;6.614;2024-03-17T13:38:41;6.97;;;5.55;;
64871;SDS011;51351;51.450;6.614;2024-03-17T13:41:06;7.45;;;4.75;;
64871;SDS011;51351;51.450;6.614;2024-03-17T13:43:31;4.53;;;3.50;;
64871;SDS011;51351;51.450;6.614;2024-03-17T13:45:57;8.30;;;3.63;;
64871;SDS011;51351;51.450;6.614;2024-03-17T13:48:23;7.13;;;2.75;;
64871;SDS011;51351;51.450;6.614;2024-03-17T13:50:48;8.93;;;3.45;;
64871;SDS011;51351;51.450;6.614;2024-03-17T13:53:14;15.80;;;4.93;;
64871;SDS011;51351;51.450;6.614;2024-03-17T13:55:40;9.32;;;4.13;;
64871;SDS011;51351;51.450;6.614;2024-03-17T13:58:05;7.25;;;3.85;;
64871;SDS011;51351;51.450;6.614;2024-03-17T14:00:31;7.03;;;3.75;;
64871;SDS011;51351;51.450;6.614;2024-03-17T14:02:57;5.65;;;3.78;;
64871;SDS011;51351;51.450;6.614;2024-03-17T14:05:23;6.18;;;4.28;;
64871;SDS011;51351;51.450;6.614;2024-03-17T14:07:48;5.78;;;4.60;;
64871;SDS011;51351;51.450;6.614;2024-03-17T14:10:15;7.68;;;3.50;;
64871;SDS011;51351;51.450;6.614;2024-03-17T14:12:41;4.13;;;3.72;;
64871;SDS011;51351;51.450;6.614;2024-03-17T14:15:07;9.10;;;4.72;;
64871;SDS011;51351;51.450;6.614;2024-03-17T14:17:36;6.40;;;4.22;;
64871;SDS011;51351;51.450;6.614;2024-03-17T14:20:01;5.07;;;4.38;;
64871;SDS011;51351;51.450;6.614;2024-03-17T14:22:28;5.93;;;3.70;;
64871;SDS011;51351;51.450;6.614;2024-03-17T14:24:53;7.28;;;4.35;;
64871;SDS011;51351;51.450;6.614;2024-03-17T14:27:19;6.20;;;4.50;;
64871;SDS011;51351;51.450;6.614;2024-03-17T14:29:45;7.22;;;4.72;;
64871;SDS011;51351;51.450;6.614;2024-03-17T14:32:11;5.93;;;3.75;;
64871;SDS011;51351;51.450;6.614;2024-03-17T14:34:39;8.10;;;3.67;;
64871;SDS011;51351;51.450;6.614;2024-03-17T14:37:04;7.20;;;4.47;;
64871;SDS011;51351;51.450;6.614;2024-03-17T14:39:30;9.18;;;4.22;;
64871;SDS011;51351;51.450;6.614;2024-03-17T14:41:55;4.82;;;3.60;;
64871;SDS011;51351;51.450;6.614;2024-03-17T14:44:21;5.55;;;4.97;;
64871;SDS011;51351;51.450;6.614;2024-03-17T14:46:46;7.80;;;5.45;;
64871;SDS011;51351;51.450;6.614;2024-03-17T14:49:12;5.22;;;3.80;;
64871;SDS011;51351;51.450;6.614;2024-03-17T14:51:37;5.70;;;4.05;;
64871;SDS011;51351;51.450;6.614;2024-03-17T14:54:03;5.90;;;3.70;;
64871;SDS011;51351;51.450;6.614;2024-03-17T14:56:28;5.97;;;4.32;;
64871;SDS011;51351;51.450;6.614;2024-03-17T14:58:54;5.47;;;3.97;;
64871;SDS011;51351;51.450;6.614;2024-03-17T15:01:19;5.10;;;4.07;;
64871;SDS011;51351;51.450;6.614;2024-03-17T15:03:45;4.22;;;3.38;;
64871;SDS011;51351;51.450;6.614;2024-03-17T15:06:14;7.13;;;4.65;;
64871;SDS011;51351;51.450;6.614;2024-03-17T15:08:41;8.27;;;4.80;;